Time;durP1;ratioP1;P1;durP2;ratioP2;P2;SDS_P1;SDS_P2;PMS_P1;PMS_P2;Temp;Humidity;BMP_temperature;BMP_pressure;BME280_temperature;BME280_humidity;BME280_pressure;Samples;Min_cycle;Max_cycle;Signal;HPM_P1;HPM_P2
2022/03/03 00:00:23;;;;;;;32.50;18.35;;;;;;;;;;4954925;29;20051;-67
2022/03/03 00:02:50;;;;;;;31.23;18.98;;;;;;;;;;4954668;29;20105;-67
2022/03/03 00:05:17;;;;;;;31.55;18.20;;;;;;;;;;4954672;29;20098;-67
2022/03/03 00:07:44;;;;;;;30.60;18.10;;;;;;;;;;4954474;29;20499;-67
2022/03/03 00:10:10;;;;;;;30.52;17.45;;;;;;;;;;4954316;29;20059;-67
2022/03/03 00:12:37;;;;;;;26.40;16.88;;;;;;;;;;4969378;28;20051;-67
2022/03/03 00:15:05;;;;;;;32.55;18.38;;;;;;;;;;4954603;29;20047;-67
2022/03/03 00:17:32;;;;;;;37.13;20.77;;;;;;;;;;4954773;28;20702;-67
2022/03/03 00:19:58;;;;;;;30.95;18.88;;;;;;;;;;4954657;29;20471;-67
2022/03/03 00:22:25;;;;;;;28.23;17.58;;;;;;;;;;4954477;29;20055;-67
2022/03/03 00:24:52;;;;;;;30.35;17.95;;;;;;;;;;4954515;29;20051;-68
2022/03/03 00:27:20;;;;;;;30.05;18.52;;;;;;;;;;4954591;29;20059;-68
2022/03/03 00:29:47;;;;;;;26.92;17.90;;;;;;;;;;4954512;29;20126;-66
2022/03/03 00:32:13;;;;;;;27.85;18.17;;;;;;;;;;4954312;29;20102;-66
2022/03/03 00:34:40;;;;;;;31.02;18.20;;;;;;;;;;4954285;29;20055;-68
2022/03/03 00:37:07;;;;;;;31.70;18.30;;;;;;;;;;4954533;29;20468;-67
2022/03/03 00:39:33;;;;;;;27.35;17.60;;;;;;;;;;4954334;29;20078;-67
2022/03/03 00:42:00;;;;;;;26.85;17.73;;;;;;;;;;4953891;29;20118;-67
2022/03/03 00:44:27;;;;;;;27.63;18.30;;;;;;;;;;4953857;28;20059;-67
2022/03/03 00:46:54;;;;;;;27.88;17.52;;;;;;;;;;4954051;29;20099;-67
2022/03/03 00:49:20;;;;;;;30.25;17.65;;;;;;;;;;4953962;29;20059;-68
2022/03/03 00:51:47;;;;;;;29.88;17.80;;;;;;;;;;4953697;29;20048;-66
2022/03/03 00:54:13;;;;;;;25.25;16.90;;;;;;;;;;4954270;29;20051;-67
2022/03/03 00:56:40;;;;;;;30.85;17.25;;;;;;;;;;4954145;29;20051;-67
2022/03/03 00:59:07;;;;;;;25.95;16.65;;;;;;;;;;4953846;29;20055;-67
2022/03/03 01:01:34;;;;;;;25.92;15.73;;;;;;;;;;4953662;29;20499;-67
2022/03/03 01:04:01;;;;;;;24.73;16.05;;;;;;;;;;4954033;29;20055;-67
2022/03/03 01:06:27;;;;;;;26.23;16.60;;;;;;;;;;4953713;29;20051;-66
2022/03/03 01:08:54;;;;;;;26.92;17.60;;;;;;;;;;4953865;29;20466;-67
2022/03/03 01:11:20;;;;;;;30.75;17.98;;;;;;;;;;4953533;29;20051;-67
2022/03/03 01:13:47;;;;;;;27.08;16.55;;;;;;;;;;4953764;29;20055;-67
2022/03/03 01:16:14;;;;;;;26.30;16.20;;;;;;;;;;4953533;29;20082;-66
2022/03/03 01:18:42;;;;;;;25.33;16.48;;;;;;;;;;4953915;29;20055;-67
2022/03/03 01:21:09;;;;;;;27.98;16.50;;;;;;;;;;4953559;29;20058;-67
2022/03/03 01:23:36;;;;;;;25.92;16.58;;;;;;;;;;4953470;29;20051;-66
2022/03/03 01:26:02;;;;;;;26.52;16.75;;;;;;;;;;4953594;29;20557;-67
2022/03/03 01:28:29;;;;;;;30.23;17.52;;;;;;;;;;4953555;29;20054;-67
2022/03/03 01:30:55;;;;;;;26.70;17.15;;;;;;;;;;4953190;29;20106;-67
2022/03/03 01:33:22;;;;;;;26.75;16.40;;;;;;;;;;4953305;29;20506;-67
2022/03/03 01:35:49;;;;;;;26.48;17.30;;;;;;;;;;4953664;29;20110;-67
2022/03/03 01:38:15;;;;;;;25.73;15.80;;;;;;;;;;4953611;29;20470;-67
2022/03/03 01:40:42;;;;;;;24.63;15.95;;;;;;;;;;4953429;29;20479;-67
2022/03/03 01:43:08;;;;;;;25.20;15.07;;;;;;;;;;4953731;29;20056;-67
2022/03/03 01:45:35;;;;;;;23.90;16.13;;;;;;;;;;4953355;29;20051;-67
2022/03/03 01:48:02;;;;;;;26.40;15.38;;;;;;;;;;4953488;29;20047;-67
2022/03/03 01:50:28;;;;;;;22.98;15.75;;;;;;;;;;4967919;28;20051;-67
2022/03/03 01:52:55;;;;;;;25.60;16.38;;;;;;;;;;4953204;29;20407;-67
2022/03/03 01:55:22;;;;;;;25.10;15.70;;;;;;;;;;4953420;29;20055;-67
2022/03/03 01:57:49;;;;;;;28.10;16.10;;;;;;;;;;4970788;28;20499;-66
2022/03/03 02:00:17;;;;;;;25.88;16.75;;;;;;;;;;4957145;29;20055;-67
2022/03/03 02:02:45;;;;;;;24.38;16.38;;;;;;;;;;4956983;29;20051;-66
2022/03/03 02:05:12;;;;;;;22.90;15.15;;;;;;;;;;4956979;29;20114;-67
2022/03/03 02:07:38;;;;;;;28.30;16.05;;;;;;;;;;4956885;29;20098;-66
2022/03/03 02:10:05;;;;;;;26.92;16.73;;;;;;;;;;4956403;29;20491;-67
2022/03/03 02:12:32;;;;;;;26.08;16.30;;;;;;;;;;4956442;29;20109;-67
2022/03/03 02:14:59;;;;;;;29.77;15.68;;;;;;;;;;4956562;29;20102;-66
2022/03/03 02:17:26;;;;;;;36.70;21.10;;;;;;;;;;4956605;29;20102;-67
2022/03/03 02:19:53;;;;;;;47.42;23.65;;;;;;;;;;4956673;29;20047;-67
2022/03/03 02:22:20;;;;;;;40.80;20.50;;;;;;;;;;4956178;29;20055;-67
2022/03/03 02:24:46;;;;;;;32.50;17.90;;;;;;;;;;4956602;29;20502;-67
2022/03/03 02:27:13;;;;;;;29.38;17.88;;;;;;;;;;4956368;29;20059;-67
2022/03/03 02:29:39;;;;;;;25.75;17.77;;;;;;;;;;4956663;29;20119;-67
2022/03/03 02:32:07;;;;;;;31.95;18.50;;;;;;;;;;4956255;29;20142;-67
2022/03/03 02:34:34;;;;;;;27.58;16.70;;;;;;;;;;4956238;29;20055;-67
2022/03/03 02:37:00;;;;;;;24.85;16.42;;;;;;;;;;4956386;29;20407;-67
2022/03/03 02:39:27;;;;;;;26.70;16.48;;;;;;;;;;4956277;29;20546;-66
2022/03/03 02:41:53;;;;;;;24.50;14.98;;;;;;;;;;4956173;29;20384;-67
2022/03/03 02:44:20;;;;;;;25.77;16.52;;;;;;;;;;4956309;29;20101;-67
2022/03/03 02:46:47;;;;;;;24.13;16.27;;;;;;;;;;4956115;29;20055;-67
2022/03/03 02:49:13;;;;;;;23.35;16.35;;;;;;;;;;4956333;29;20055;-67
2022/03/03 02:51:40;;;;;;;25.88;16.33;;;;;;;;;;4955988;29;20047;-67
2022/03/03 02:54:07;;;;;;;27.48;16.75;;;;;;;;;;4955862;29;20106;-67
2022/03/03 02:57:53;;;;;;;25.52;16.42;;;;;;;;;;4956166;29;20051;-67
2022/03/03 02:59:20;;;;;;;26.33;16.17;;;;;;;;;;4956266;29;20102;-66
2022/03/03 03:01:46;;;;;;;25.90;15.85;;;;;;;;;;4955627;29;20486;-67
2022/03/03 03:04:13;;;;;;;25.67;16.48;;;;;;;;;;4955851;29;20051;-67
2022/03/03 03:06:40;;;;;;;25.50;16.73;;;;;;;;;;4955740;29;20055;-66
2022/03/03 03:09:06;;;;;;;28.17;17.60;;;;;;;;;;4955997;28;20059;-67
2022/03/03 03:11:33;;;;;;;25.10;15.82;;;;;;;;;;4955489;29;20098;-67
2022/03/03 03:14:00;;;;;;;26.20;17.02;;;;;;;;;;4955756;29;20094;-67
2022/03/03 03:16:26;;;;;;;27.20;17.30;;;;;;;;;;4956013;29;20396;-67
2022/03/03 03:18:53;;;;;;;27.25;17.30;;;;;;;;;;4955601;29;20059;-67
2022/03/03 03:21:20;;;;;;;32.95;17.90;;;;;;;;;;4955344;29;20110;-67
2022/03/03 03:23:46;;;;;;;27.80;16.67;;;;;;;;;;4955266;29;20507;-66
2022/03/03 03:26:13;;;;;;;29.77;17.70;;;;;;;;;;4955473;29;20059;-67
2022/03/03 03:28:39;;;;;;;29.85;17.73;;;;;;;;;;4955580;29;20188;-67
2022/03/03 03:31:06;;;;;;;30.23;17.77;;;;;;;;;;4955205;29;20051;-67
2022/03/03 03:33:33;;;;;;;33.33;17.95;;;;;;;;;;4955084;29;20082;-66
2022/03/03 03:35:59;;;;;;;27.08;16.63;;;;;;;;;;4955268;29;20051;-67
2022/03/03 03:38:26;;;;;;;27.42;16.90;;;;;;;;;;4955221;29;20102;-67
2022/03/03 03:40:52;;;;;;;25.48;16.88;;;;;;;;;;4955078;29;20074;-67
2022/03/03 03:43:19;;;;;;;27.50;17.20;;;;;;;;;;4955116;29;20478;-67
2022/03/03 03:45:46;;;;;;;29.23;17.80;;;;;;;;;;4955093;29;20130;-67
2022/03/03 03:48:12;;;;;;;28.70;16.48;;;;;;;;;;4954963;29;20051;-67
2022/03/03 03:50:39;;;;;;;25.08;16.05;;;;;;;;;;4954670;29;20051;-66
2022/03/03 03:53:05;;;;;;;25.60;16.63;;;;;;;;;;4954794;29;20079;-67
2022/03/03 03:55:32;;;;;;;29.38;18.67;;;;;;;;;;4955079;29;20474;-67
2022/03/03 03:57:58;;;;;;;27.42;16.65;;;;;;;;;;4954759;29;20057;-67
2022/03/03 04:00:25;;;;;;;27.40;16.10;;;;;;;;;;4954623;29;20051;-67
2022/03/03 04:02:52;;;;;;;29.27;16.60;;;;;;;;;;4954516;29;20055;-66
2022/03/03 04:05:18;;;;;;;25.38;17.40;;;;;;;;;;4954950;29;20055;-67
2022/03/03 04:07:45;;;;;;;26.05;16.23;;;;;;;;;;4954752;29;20097;-67
2022/03/03 04:10:12;;;;;;;25.65;16.85;;;;;;;;;;4954372;29;20573;-67
2022/03/03 04:12:39;;;;;;;23.20;15.90;;;;;;;;;;4954862;28;20054;-67
2022/03/03 04:15:07;;;;;;;27.25;15.95;;;;;;;;;;4954941;29;20486;-66
2022/03/03 04:17:33;;;;;;;27.40;17.55;;;;;;;;;;4954322;29;20083;-66
2022/03/03 04:20:05;;;;;;;28.85;16.38;;;;;;;;;;4953895;28;20506;-67
2022/03/03 04:22:32;;;;;;;27.30;17.30;;;;;;;;;;4954388;29;20122;-67
2022/03/03 04:24:58;;;;;;;25.00;16.73;;;;;;;;;;4955058;29;20051;-66
2022/03/03 04:27:26;;;;;;;23.63;15.40;;;;;;;;;;4953702;29;20062;-67
2022/03/03 04:29:52;;;;;;;29.65;16.80;;;;;;;;;;4954182;29;20491;-66
2022/03/03 04:32:19;;;;;;;25.60;16.27;;;;;;;;;;4953810;28;21129;-67
2022/03/03 04:34:45;;;;;;;23.25;16.17;;;;;;;;;;4954236;29;20084;-67
2022/03/03 04:37:12;;;;;;;31.02;16.88;;;;;;;;;;4954106;29;20498;-67
2022/03/03 04:39:39;;;;;;;25.80;16.92;;;;;;;;;;4954397;29;20047;-67
2022/03/03 04:42:05;;;;;;;26.45;16.65;;;;;;;;;;4953998;29;20051;-67
2022/03/03 04:44:32;;;;;;;29.45;17.50;;;;;;;;;;4953875;29;20059;-67
2022/03/03 04:46:58;;;;;;;26.25;17.13;;;;;;;;;;4954193;28;20050;-67
2022/03/03 04:49:26;;;;;;;25.10;17.27;;;;;;;;;;4963891;29;20051;-66
2022/03/03 04:51:52;;;;;;;24.70;16.55;;;;;;;;;;4953939;29;20043;-66
2022/03/03 04:54:19;;;;;;;29.40;17.67;;;;;;;;;;4954134;29;20503;-66
2022/03/03 04:56:45;;;;;;;26.23;17.20;;;;;;;;;;4953966;29;20055;-66
2022/03/03 04:59:12;;;;;;;26.92;17.25;;;;;;;;;;4953966;29;20114;-66
2022/03/03 05:01:39;;;;;;;28.23;16.45;;;;;;;;;;4953977;29;20051;-66
2022/03/03 05:04:05;;;;;;;29.35;17.15;;;;;;;;;;4954259;29;20130;-66
2022/03/03 05:06:32;;;;;;;25.95;17.55;;;;;;;;;;4953995;29;20114;-67
2022/03/03 05:08:58;;;;;;;25.95;17.15;;;;;;;;;;4954022;29;20077;-67
2022/03/03 05:11:25;;;;;;;26.13;15.85;;;;;;;;;;4953627;28;20462;-67
2022/03/03 05:13:52;;;;;;;23.58;15.95;;;;;;;;;;4953697;28;20577;-67
2022/03/03 05:16:18;;;;;;;32.13;17.80;;;;;;;;;;4953850;29;20475;-67
2022/03/03 05:18:45;;;;;;;26.05;16.23;;;;;;;;;;4953887;29;20051;-67
2022/03/03 05:21:12;;;;;;;24.77;16.08;;;;;;;;;;4953842;29;20098;-67
2022/03/03 05:23:38;;;;;;;27.92;17.00;;;;;;;;;;4953653;29;20051;-67
2022/03/03 05:26:05;;;;;;;26.48;16.83;;;;;;;;;;4953668;29;20051;-67
2022/03/03 05:28:31;;;;;;;23.08;16.17;;;;;;;;;;4953397;29;20071;-66
2022/03/03 05:30:58;;;;;;;28.33;17.13;;;;;;;;;;4953640;28;20110;-66
2022/03/03 05:33:25;;;;;;;26.63;17.63;;;;;;;;;;4957589;29;20051;-67
2022/03/03 05:35:58;;;;;;;23.67;16.98;;;;;;;;;;4956581;29;20055;-67
2022/03/03 05:38:27;;;;;;;29.88;16.63;;;;;;;;;;4957657;29;20495;-66
2022/03/03 05:40:54;;;;;;;26.25;16.80;;;;;;;;;;4957162;29;20051;-67
2022/03/03 05:43:21;;;;;;;27.33;17.15;;;;;;;;;;4957383;29;20396;-67
2022/03/03 05:45:47;;;;;;;27.55;17.70;;;;;;;;;;4957252;29;20055;-67
2022/03/03 05:48:17;;;;;;;28.15;17.23;;;;;;;;;;4957263;29;20055;-66
2022/03/03 05:50:43;;;;;;;26.55;17.77;;;;;;;;;;4957231;29;20101;-67
2022/03/03 05:53:10;;;;;;;29.60;18.65;;;;;;;;;;4957095;29;20047;-67
2022/03/03 05:55:59;;;;;;;33.55;20.40;;;;;;;;;;4957207;29;20051;-67
2022/03/03 05:58:48;;;;;;;28.38;18.45;;;;;;;;;;4955860;29;20419;-67
2022/03/03 06:01:15;;;;;;;26.23;16.92;;;;;;;;;;4970078;28;20047;-67
2022/03/03 06:03:43;;;;;;;25.83;16.65;;;;;;;;;;4956810;29;20082;-67
2022/03/03 06:06:17;;;;;;;24.42;16.50;;;;;;;;;;4955757;29;20055;-66
2022/03/03 06:09:04;;;;;;;22.95;15.45;;;;;;;;;;4957164;29;20477;-66
2022/03/03 06:11:31;;;;;;;22.98;16.23;;;;;;;;;;4956622;29;20391;-67
2022/03/03 06:14:08;;;;;;;28.30;17.33;;;;;;;;;;4955678;29;20055;-66
2022/03/03 06:16:36;;;;;;;26.75;16.00;;;;;;;;;;4956741;29;20051;-67
2022/03/03 06:19:03;;;;;;;26.00;16.17;;;;;;;;;;4956909;29;20059;-66
2022/03/03 06:21:29;;;;;;;24.35;15.38;;;;;;;;;;4957042;29;20050;-67
2022/03/03 06:23:56;;;;;;;24.38;15.85;;;;;;;;;;4956984;29;20390;-67
2022/03/03 06:26:23;;;;;;;31.55;18.08;;;;;;;;;;4956713;29;20051;-66
2022/03/03 06:28:50;;;;;;;29.27;15.95;;;;;;;;;;4971169;28;20059;-67
2022/03/03 06:31:16;;;;;;;27.77;17.42;;;;;;;;;;4956400;29;20051;-66
2022/03/03 06:33:43;;;;;;;26.02;16.98;;;;;;;;;;4956290;28;20098;-66
2022/03/03 06:36:10;;;;;;;32.22;18.35;;;;;;;;;;4956742;28;20058;-67
2022/03/03 06:38:36;;;;;;;26.05;17.58;;;;;;;;;;4956541;29;20490;-67
2022/03/03 06:41:05;;;;;;;28.23;18.70;;;;;;;;;;4956276;29;20467;-66
2022/03/03 06:43:34;;;;;;;28.80;18.65;;;;;;;;;;4955727;28;20059;-67
2022/03/03 06:46:01;;;;;;;27.85;18.27;;;;;;;;;;4956507;29;20343;-66
2022/03/03 06:48:28;;;;;;;26.27;17.65;;;;;;;;;;4956939;29;20055;-66
2022/03/03 06:50:55;;;;;;;30.13;17.27;;;;;;;;;;4955911;29;20051;-67
2022/03/03 06:53:29;;;;;;;29.48;17.55;;;;;;;;;;4956025;29;20047;-67
2022/03/03 06:56:06;;;;;;;29.83;17.95;;;;;;;;;;4956052;29;20106;-67
2022/03/03 06:58:34;;;;;;;30.80;17.33;;;;;;;;;;4956123;29;20055;-66
2022/03/03 07:01:08;;;;;;;32.17;18.63;;;;;;;;;;4955936;29;20110;-67
2022/03/03 07:03:36;;;;;;;30.50;18.35;;;;;;;;;;4955858;29;20529;-67
2022/03/03 07:06:03;;;;;;;27.90;18.00;;;;;;;;;;4955985;29;20467;-67
2022/03/03 07:08:33;;;;;;;30.23;18.67;;;;;;;;;;4955866;29;20099;-66
2022/03/03 07:11:00;;;;;;;32.45;17.67;;;;;;;;;;4956024;29;20474;-67
2022/03/03 07:13:27;;;;;;;30.08;18.20;;;;;;;;;;4955636;29;20102;-67
2022/03/03 07:16:28;;;;;;;28.52;18.55;;;;;;;;;;4955728;29;20546;-66
2022/03/03 07:18:55;;;;;;;26.85;16.85;;;;;;;;;;4955700;29;20058;-66
2022/03/03 07:21:50;;;;;;;28.75;17.63;;;;;;;;;;4955937;29;20110;-66
2022/03/03 07:24:30;;;;;;;30.95;18.27;;;;;;;;;;4955547;29;20404;-67
2022/03/03 07:26:59;;;;;;;28.63;18.70;;;;;;;;;;4954343;29;20055;-66
2022/03/03 07:29:28;;;;;;;27.55;18.52;;;;;;;;;;4955438;29;20594;-66
2022/03/03 07:31:57;;;;;;;32.25;18.92;;;;;;;;;;4969644;28;20098;-67
2022/03/03 07:34:37;;;;;;;28.50;18.58;;;;;;;;;;4955441;29;20047;-66
2022/03/03 07:37:07;;;;;;;30.15;19.02;;;;;;;;;;4955427;29;20454;-67
2022/03/03 07:39:45;;;;;;;30.00;19.25;;;;;;;;;;4955298;29;20055;-67
2022/03/03 07:42:17;;;;;;;30.67;18.38;;;;;;;;;;4955024;29;20103;-67
2022/03/03 07:44:47;;;;;;;29.80;19.25;;;;;;;;;;4955573;29;20344;-67
2022/03/03 07:47:14;;;;;;;31.27;19.33;;;;;;;;;;4955313;29;20055;-67
2022/03/03 07:49:41;;;;;;;26.92;18.92;;;;;;;;;;4966088;29;20084;-67
2022/03/03 07:52:08;;;;;;;27.67;17.63;;;;;;;;;;4969028;29;20047;-67
2022/03/03 07:54:35;;;;;;;27.52;18.50;;;;;;;;;;4979520;28;20051;-67
2022/03/03 07:57:02;;;;;;;33.70;19.65;;;;;;;;;;4955103;29;20466;-67
2022/03/03 07:59:33;;;;;;;35.53;20.45;;;;;;;;;;4954020;29;20055;-66
2022/03/03 08:02:03;;;;;;;28.15;17.92;;;;;;;;;;4954923;29;20051;-67
2022/03/03 08:04:32;;;;;;;29.17;19.10;;;;;;;;;;4954793;29;20430;-67
2022/03/03 08:07:09;;;;;;;26.85;18.40;;;;;;;;;;4953890;29;20051;-67
2022/03/03 08:09:38;;;;;;;28.67;17.60;;;;;;;;;;4954951;29;20051;-67
2022/03/03 08:12:07;;;;;;;25.33;18.08;;;;;;;;;;4954620;29;20105;-66
2022/03/03 08:14:35;;;;;;;31.45;18.08;;;;;;;;;;4954696;29;20490;-67
2022/03/03 08:17:02;;;;;;;26.85;17.45;;;;;;;;;;4954625;29;20047;-67
2022/03/03 08:19:30;;;;;;;31.05;18.38;;;;;;;;;;4954543;29;20118;-67
2022/03/03 08:21:56;;;;;;;27.88;16.55;;;;;;;;;;4954245;29;20047;-67
2022/03/03 08:24:23;;;;;;;29.40;17.02;;;;;;;;;;4953241;29;20063;-67
2022/03/03 08:26:50;;;;;;;29.38;17.48;;;;;;;;;;4954472;29;20059;-67
2022/03/03 08:29:16;;;;;;;28.88;16.90;;;;;;;;;;4953636;29;20125;-67
2022/03/03 08:31:48;;;;;;;30.83;16.58;;;;;;;;;;4953941;29;20506;-67
2022/03/03 08:34:18;;;;;;;26.17;17.42;;;;;;;;;;4953741;29;20054;-68
2022/03/03 08:37:00;;;;;;;27.90;16.30;;;;;;;;;;4953316;29;20055;-67
2022/03/03 08:39:28;;;;;;;26.05;16.00;;;;;;;;;;4954331;29;20109;-67
2022/03/03 08:42:00;;;;;;;26.63;16.27;;;;;;;;;;4953929;29;20054;-67
2022/03/03 08:44:46;;;;;;;23.02;16.05;;;;;;;;;;4954438;28;20470;-67
2022/03/03 08:47:15;;;;;;;23.65;15.32;;;;;;;;;;4953328;29;20138;-67
2022/03/03 08:49:44;;;;;;;23.00;15.52;;;;;;;;;;4954198;29;20070;-67
2022/03/03 08:52:11;;;;;;;24.23;15.38;;;;;;;;;;4953655;29;20058;-67
2022/03/03 08:54:38;;;;;;;23.27;15.90;;;;;;;;;;4953942;29;20055;-66
2022/03/03 08:57:04;;;;;;;23.42;16.45;;;;;;;;;;4954217;29;20109;-67
2022/03/03 08:59:31;;;;;;;25.92;15.82;;;;;;;;;;4954133;29;20047;-67
2022/03/03 09:01:58;;;;;;;27.33;16.77;;;;;;;;;;4953936;29;20137;-67
2022/03/03 09:04:25;;;;;;;24.20;16.05;;;;;;;;;;4953851;28;20058;-68
2022/03/03 09:06:52;;;;;;;25.08;16.42;;;;;;;;;;4953791;29;20295;-68
2022/03/03 09:09:18;;;;;;;22.33;14.63;;;;;;;;;;4953791;29;20051;-67
2022/03/03 09:11:45;;;;;;;21.33;15.38;;;;;;;;;;4953451;29;20055;-67
2022/03/03 09:14:12;;;;;;;21.42;15.70;;;;;;;;;;4953818;29;20491;-68
2022/03/03 09:16:39;;;;;;;22.73;16.40;;;;;;;;;;4953893;29;20055;-67
2022/03/03 09:19:07;;;;;;;24.20;15.45;;;;;;;;;;4952757;29;20506;-68
2022/03/03 09:21:33;;;;;;;24.00;15.85;;;;;;;;;;4954150;29;20105;-68
2022/03/03 09:24:00;;;;;;;21.70;14.45;;;;;;;;;;4953638;28;20106;-68
2022/03/03 09:26:28;;;;;;;24.85;16.00;;;;;;;;;;4953692;29;20086;-67
2022/03/03 09:28:54;;;;;;;24.85;15.20;;;;;;;;;;4953665;29;20582;-68
2022/03/03 09:31:21;;;;;;;21.65;14.60;;;;;;;;;;4953577;29;20085;-67
2022/03/03 09:33:48;;;;;;;24.23;15.10;;;;;;;;;;4953730;29;20051;-68
2022/03/03 09:36:14;;;;;;;22.20;14.75;;;;;;;;;;4953537;29;20051;-67
2022/03/03 09:38:41;;;;;;;23.58;15.07;;;;;;;;;;4953799;29;20054;-67
2022/03/03 09:41:12;;;;;;;23.83;15.40;;;;;;;;;;4953637;29;20051;-68
2022/03/03 09:43:43;;;;;;;23.67;14.45;;;;;;;;;;4953769;29;20098;-67
2022/03/03 09:46:10;;;;;;;22.48;13.13;;;;;;;;;;4954259;29;20102;-67
2022/03/03 09:48:37;;;;;;;24.60;14.77;;;;;;;;;;4953589;29;20085;-67
2022/03/03 09:51:04;;;;;;;20.77;14.23;;;;;;;;;;4953227;29;20110;-68
2022/03/03 09:53:32;;;;;;;19.13;13.15;;;;;;;;;;4953189;29;20546;-67
2022/03/03 09:55:59;;;;;;;19.65;13.27;;;;;;;;;;4953590;29;20486;-67
2022/03/03 09:58:25;;;;;;;22.58;14.73;;;;;;;;;;4953571;29;20105;-67
2022/03/03 10:00:52;;;;;;;19.33;13.35;;;;;;;;;;4953288;29;20051;-67
2022/03/03 10:03:19;;;;;;;18.58;13.88;;;;;;;;;;4953117;29;20529;-66
2022/03/03 10:05:50;;;;;;;20.60;13.77;;;;;;;;;;4953456;29;20047;-67
2022/03/03 10:08:19;;;;;;;20.27;14.02;;;;;;;;;;4953197;29;20051;-67
2022/03/03 10:10:51;;;;;;;21.98;13.57;;;;;;;;;;4953101;29;20102;-66
2022/03/03 10:13:18;;;;;;;21.30;14.45;;;;;;;;;;4953111;28;20043;-66
2022/03/03 10:15:50;;;;;;;24.95;13.88;;;;;;;;;;4952884;29;20106;-67
2022/03/03 10:18:17;;;;;;;20.10;14.25;;;;;;;;;;4955235;28;20470;-67
2022/03/03 10:20:54;;;;;;;19.33;13.90;;;;;;;;;;4956388;29;20059;-66
2022/03/03 10:23:35;;;;;;;20.35;12.77;;;;;;;;;;4957049;29;20474;-66
2022/03/03 10:26:06;;;;;;;19.13;13.50;;;;;;;;;;4956932;29;20062;-67
2022/03/03 10:28:34;;;;;;;19.88;13.75;;;;;;;;;;4956438;29;20184;-66
2022/03/03 10:31:15;;;;;;;21.88;13.65;;;;;;;;;;4956482;29;20114;-66
2022/03/03 10:33:46;;;;;;;20.25;14.15;;;;;;;;;;4956346;29;20047;-66
2022/03/03 10:36:17;;;;;;;18.42;12.13;;;;;;;;;;4956485;29;20110;-66
2022/03/03 10:38:46;;;;;;;20.00;13.10;;;;;;;;;;4956273;29;20113;-66
2022/03/03 10:41:36;;;;;;;20.02;13.02;;;;;;;;;;4956149;28;20507;-67
2022/03/03 10:44:22;;;;;;;18.25;12.95;;;;;;;;;;4956443;29;20106;-67
2022/03/03 10:47:04;;;;;;;19.80;13.25;;;;;;;;;;4939047;29;20047;-68
2022/03/03 10:49:31;;;;;;;18.73;12.50;;;;;;;;;;4956390;29;20051;-66
2022/03/03 10:52:24;;;;;;;18.52;11.88;;;;;;;;;;4956042;29;20470;-67
2022/03/03 10:54:58;;;;;;;22.15;14.15;;;;;;;;;;4954934;29;20055;-67
2022/03/03 10:57:45;;;;;;;20.17;13.32;;;;;;;;;;4955887;29;20499;-67
2022/03/03 11:00:16;;;;;;;20.73;13.65;;;;;;;;;;4956011;29;20047;-67
2022/03/03 11:02:47;;;;;;;16.10;12.23;;;;;;;;;;4955875;29;20114;-67
2022/03/03 11:05:15;;;;;;;16.85;12.30;;;;;;;;;;4956228;29;20078;-67
2022/03/03 11:07:43;;;;;;;20.05;12.80;;;;;;;;;;4955885;29;20047;-67
2022/03/03 11:10:14;;;;;;;21.90;13.43;;;;;;;;;;4955554;29;20055;-67
2022/03/03 11:12:43;;;;;;;17.90;11.93;;;;;;;;;;4955771;28;20051;-67
2022/03/03 11:15:11;;;;;;;18.48;12.88;;;;;;;;;;4955832;29;20055;-67
2022/03/03 11:17:37;;;;;;;18.65;12.77;;;;;;;;;;4956072;29;20392;-67
2022/03/03 11:20:06;;;;;;;19.63;13.95;;;;;;;;;;4955374;28;20055;-67
2022/03/03 11:22:33;;;;;;;18.58;12.27;;;;;;;;;;4954039;29;20055;-67
2022/03/03 11:25:04;;;;;;;19.85;13.85;;;;;;;;;;4956077;29;20094;-67
2022/03/03 11:27:34;;;;;;;18.17;13.10;;;;;;;;;;4954403;29;20047;-67
2022/03/03 11:30:12;;;;;;;20.42;14.13;;;;;;;;;;4954285;28;20114;-67
2022/03/03 11:32:39;;;;;;;19.60;14.10;;;;;;;;;;4955235;28;20059;-67
2022/03/03 11:35:08;;;;;;;19.08;13.57;;;;;;;;;;4969903;28;20058;-67
2022/03/03 11:37:42;;;;;;;21.88;14.50;;;;;;;;;;4955395;29;20076;-66
2022/03/03 11:40:12;;;;;;;20.48;13.68;;;;;;;;;;4955355;29;20054;-67
2022/03/03 11:42:47;;;;;;;24.63;14.40;;;;;;;;;;4955216;29;20125;-67
2022/03/03 11:45:32;;;;;;;18.27;14.10;;;;;;;;;;4955379;29;20063;-65
2022/03/03 11:48:14;;;;;;;24.85;14.10;;;;;;;;;;4954164;29;20055;-67
2022/03/03 11:50:42;;;;;;;24.00;15.40;;;;;;;;;;4955367;29;20051;-67
2022/03/03 11:53:09;;;;;;;20.95;13.75;;;;;;;;;;4954760;29;20090;-67
2022/03/03 11:55:37;;;;;;;23.25;14.88;;;;;;;;;;4955053;29;20172;-67
2022/03/03 11:58:07;;;;;;;22.35;14.82;;;;;;;;;;4954683;29;20051;-68
2022/03/03 12:00:45;;;;;;;21.65;14.55;;;;;;;;;;4955251;29;20502;-67
2022/03/03 12:03:13;;;;;;;21.20;15.65;;;;;;;;;;4955028;29;20082;-67
2022/03/03 12:05:48;;;;;;;22.13;14.07;;;;;;;;;;4954810;29;20079;-67
2022/03/03 12:08:14;;;;;;;26.92;15.93;;;;;;;;;;4955179;29;20063;-67
2022/03/03 12:11:06;;;;;;;24.05;14.85;;;;;;;;;;4954462;29;20478;-67
2022/03/03 12:13:39;;;;;;;23.98;16.08;;;;;;;;;;4954745;29;20051;-68
2022/03/03 12:16:21;;;;;;;26.17;16.73;;;;;;;;;;4954557;29;20514;-67
2022/03/03 12:19:09;;;;;;;30.73;15.73;;;;;;;;;;4954432;29;20055;-65
2022/03/03 12:21:46;;;;;;;24.63;15.50;;;;;;;;;;4954385;29;20098;-67
2022/03/03 12:24:13;;;;;;;23.52;15.57;;;;;;;;;;4954382;29;20093;-68
2022/03/03 12:26:51;;;;;;;23.70;16.17;;;;;;;;;;4954443;29;20051;-68
2022/03/03 12:29:48;;;;;;;21.25;15.20;;;;;;;;;;4954359;29;20051;-66
2022/03/03 12:32:41;;;;;;;23.20;16.10;;;;;;;;;;4954387;29;20138;-65
2022/03/03 12:35:26;;;;;;;22.67;15.77;;;;;;;;;;4954637;29;20126;-66
2022/03/03 12:37:55;;;;;;;22.92;15.45;;;;;;;;;;4967645;28;20055;-66
2022/03/03 12:40:25;;;;;;;21.88;16.52;;;;;;;;;;4952817;28;20110;-66
2022/03/03 12:42:52;;;;;;;24.73;16.38;;;;;;;;;;4954187;29;20089;-66
2022/03/03 12:45:19;;;;;;;25.38;17.38;;;;;;;;;;4954187;29;20415;-66
2022/03/03 12:47:53;;;;;;;24.48;15.77;;;;;;;;;;4954065;29;20051;-66
2022/03/03 12:50:29;;;;;;;25.17;16.00;;;;;;;;;;4954139;29;20055;-66
2022/03/03 12:53:05;;;;;;;23.80;16.77;;;;;;;;;;4953916;29;20055;-66
2022/03/03 12:55:33;;;;;;;26.73;16.75;;;;;;;;;;4954089;29;20055;-66
2022/03/03 12:58:00;;;;;;;22.55;16.38;;;;;;;;;;4953841;29;20091;-66
2022/03/03 13:00:28;;;;;;;24.00;16.63;;;;;;;;;;4954219;28;20047;-66
2022/03/03 13:02:56;;;;;;;23.85;16.48;;;;;;;;;;4952371;29;20051;-66
2022/03/03 13:05:32;;;;;;;23.13;15.98;;;;;;;;;;4954004;29;20051;-66
2022/03/03 13:08:00;;;;;;;23.02;16.83;;;;;;;;;;4954014;29;20051;-66
2022/03/03 13:10:29;;;;;;;23.85;17.42;;;;;;;;;;4953793;29;20474;-66
2022/03/03 13:12:57;;;;;;;21.52;15.95;;;;;;;;;;4953627;29;20059;-66
2022/03/03 13:15:31;;;;;;;24.38;16.75;;;;;;;;;;4953937;29;20086;-66
2022/03/03 13:18:09;;;;;;;25.38;18.52;;;;;;;;;;4953891;29;20058;-67
2022/03/03 13:20:37;;;;;;;24.35;16.73;;;;;;;;;;4953725;29;20114;-67
2022/03/03 13:23:04;;;;;;;22.98;16.75;;;;;;;;;;4953534;29;20062;-67
2022/03/03 13:25:31;;;;;;;19.52;16.00;;;;;;;;;;4954117;29;20106;-67
2022/03/03 13:27:58;;;;;;;23.35;17.17;;;;;;;;;;4953614;29;20495;-67
2022/03/03 13:30:25;;;;;;;26.92;17.90;;;;;;;;;;4953674;29;20055;-67
2022/03/03 13:32:52;;;;;;;24.67;16.65;;;;;;;;;;4953652;29;20100;-67
2022/03/03 13:35:21;;;;;;;23.08;17.50;;;;;;;;;;4953828;29;20083;-67
2022/03/03 13:37:48;;;;;;;23.67;16.60;;;;;;;;;;4953638;29;20055;-67
2022/03/03 13:40:23;;;;;;;28.40;18.20;;;;;;;;;;4953422;28;20060;-67
2022/03/03 13:42:54;;;;;;;22.08;17.00;;;;;;;;;;4953797;29;20051;-67
2022/03/03 13:45:32;;;;;;;24.05;17.80;;;;;;;;;;4953784;29;20113;-68
2022/03/03 13:48:13;;;;;;;23.05;16.70;;;;;;;;;;4953590;29;20478;-67
2022/03/03 13:50:41;;;;;;;21.48;16.35;;;;;;;;;;4952054;29;20538;-67
2022/03/03 13:53:17;;;;;;;21.55;17.17;;;;;;;;;;4955270;28;20102;-67
2022/03/03 13:55:47;;;;;;;26.20;17.50;;;;;;;;;;4957416;29;20133;-67
2022/03/03 13:58:22;;;;;;;25.70;16.42;;;;;;;;;;4955908;29;20055;-67
2022/03/03 14:00:50;;;;;;;23.17;16.85;;;;;;;;;;4956775;29;20054;-67
2022/03/03 14:03:17;;;;;;;19.20;15.57;;;;;;;;;;4957213;29;20114;-68
2022/03/03 14:05:49;;;;;;;25.13;17.23;;;;;;;;;;4957306;29;20055;-66
2022/03/03 14:08:18;;;;;;;25.55;16.95;;;;;;;;;;4957084;29;20055;-67
2022/03/03 14:10:58;;;;;;;24.17;17.08;;;;;;;;;;4956916;29;20098;-67
2022/03/03 14:13:30;;;;;;;25.85;17.40;;;;;;;;;;4956572;28;20058;-68
2022/03/03 14:15:58;;;;;;;23.60;16.93;;;;;;;;;;4957088;29;20062;-67
2022/03/03 14:18:26;;;;;;;25.50;16.75;;;;;;;;;;4956978;29;20066;-67
2022/03/03 14:20:55;;;;;;;24.15;16.17;;;;;;;;;;4956717;29;20098;-67
2022/03/03 14:23:23;;;;;;;24.55;16.55;;;;;;;;;;4956366;29;20055;-67
2022/03/03 14:25:49;;;;;;;25.02;15.85;;;;;;;;;;4956686;29;20059;-67
2022/03/03 14:28:18;;;;;;;21.13;16.52;;;;;;;;;;4956451;29;20051;-67